sensor_id;sensor_type;location;lat;lon;timestamp;temperature;humidity
46336;DHT22;31365;48.858;8.530;2022-11-15T00:00:13;10.90;99.90
46336;DHT22;31365;48.858;8.530;2022-11-15T00:03:00;10.80;99.90
46336;DHT22;31365;48.858;8.530;2022-11-15T00:05:47;10.80;99.90
46336;DHT22;31365;48.858;8.530;2022-11-15T00:08:36;10.90;99.90
46336;DHT22;31365;48.858;8.530;2022-11-15T00:11:26;10.80;99.90
46336;DHT22;31365;48.858;8.530;2022-11-15T00:14:13;10.80;99.90
46336;DHT22;31365;48.858;8.530;2022-11-15T00:17:00;10.80;99.90
46336;DHT22;31365;48.858;8.530;2022-11-15T00:19:47;10.60;99.90
46336;DHT22;31365;48.858;8.530;2022-11-15T00:22:34;10.60;99.90
46336;DHT22;31365;48.858;8.530;2022-11-15T00:25:21;10.60;99.90
46336;DHT22;31365;48.858;8.530;2022-11-15T00:28:10;10.50;99.90
46336;DHT22;31365;48.858;8.530;2022-11-15T00:31:00;10.70;99.90
46336;DHT22;31365;48.858;8.530;2022-11-15T00:33:48;10.40;99.90
46336;DHT22;31365;48.858;8.530;2022-11-15T00:36:36;10.40;99.90
46336;DHT22;31365;48.858;8.530;2022-11-15T00:39:23;10.50;99.90
46336;DHT22;31365;48.858;8.530;2022-11-15T00:42:11;10.40;99.90
46336;DHT22;31365;48.858;8.530;2022-11-15T00:44:59;10.50;99.90
46336;DHT22;31365;48.858;8.530;2022-11-15T00:47:46;10.50;99.90
46336;DHT22;31365;48.858;8.530;2022-11-15T00:50:34;10.50;99.90
46336;DHT22;31365;48.858;8.530;2022-11-15T00:53:21;10.60;99.90
46336;DHT22;31365;48.858;8.530;2022-11-15T00:56:08;10.60;99.90
46336;DHT22;31365;48.858;8.530;2022-11-15T00:58:55;10.60;99.90
46336;DHT22;31365;48.858;8.530;2022-11-15T01:01:44;10.60;99.90
46336;DHT22;31365;48.858;8.530;2022-11-15T01:04:31;10.60;99.90
46336;DHT22;31365;48.858;8.530;2022-11-15T01:07:19;10.60;99.90
46336;DHT22;31365;48.858;8.530;2022-11-15T01:10:06;10.50;99.90
46336;DHT22;31365;48.858;8.530;2022-11-15T01:12:54;10.50;99.90
46336;DHT22;31365;48.858;8.530;2022-11-15T01:15:41;10.50;99.90
46336;DHT22;31365;48.858;8.530;2022-11-15T01:18:30;10.50;99.90
46336;DHT22;31365;48.858;8.530;2022-11-15T01:21:18;10.50;99.90
46336;DHT22;31365;48.858;8.530;2022-11-15T01:24:06;10.60;99.90
46336;DHT22;31365;48.858;8.530;2022-11-15T01:26:54;10.40;99.90
46336;DHT22;31365;48.858;8.530;2022-11-15T01:29:41;10.40;99.90
46336;DHT22;31365;48.858;8.530;2022-11-15T01:32:28;10.40;99.90
46336;DHT22;31365;48.858;8.530;2022-11-15T01:35:17;10.50;99.90
46336;DHT22;31365;48.858;8.530;2022-11-15T01:38:06;10.50;99.90
46336;DHT22;31365;48.858;8.530;2022-11-15T01:40:53;10.40;99.90
46336;DHT22;31365;48.858;8.530;2022-11-15T01:43:40;10.40;99.90
46336;DHT22;31365;48.858;8.530;2022-11-15T01:46:30;10.40;99.90
46336;DHT22;31365;48.858;8.530;2022-11-15T01:49:22;10.70;99.90
46336;DHT22;31365;48.858;8.530;2022-11-15T01:52:15;10.30;99.90
46336;DHT22;31365;48.858;8.530;2022-11-15T01:55:09;10.30;99.90
46336;DHT22;31365;48.858;8.530;2022-11-15T01:58:02;10.30;99.90
46336;DHT22;31365;48.858;8.530;2022-11-15T02:00:52;10.40;99.90
46336;DHT22;31365;48.858;8.530;2022-11-15T02:03:42;10.50;99.90
46336;DHT22;31365;48.858;8.530;2022-11-15T02:06:36;10.40;99.90
46336;DHT22;31365;48.858;8.530;2022-11-15T02:09:26;10.30;99.90
46336;DHT22;31365;48.858;8.530;2022-11-15T02:12:15;10.40;99.90
46336;DHT22;31365;48.858;8.530;2022-11-15T02:15:06;10.40;99.90
46336;DHT22;31365;48.858;8.530;2022-11-15T02:18:07;10.30;99.90
46336;DHT22;31365;48.858;8.530;2022-11-15T02:21:12;10.30;99.90
46336;DHT22;31365;48.858;8.530;2022-11-15T02:28:10;10.10;99.90
46336;DHT22;31365;48.858;8.530;2022-11-15T02:31:14;10.00;99.90
46336;DHT22;31365;48.858;8.530;2022-11-15T02:34:16;10.10;99.90
46336;DHT22;31365;48.858;8.530;2022-11-15T02:37:16;10.20;99.90
46336;DHT22;31365;48.858;8.530;2022-11-15T02:40:17;10.20;99.90
46336;DHT22;31365;48.858;8.530;2022-11-15T02:43:19;10.50;99.90
46336;DHT22;31365;48.858;8.530;2022-11-15T02:46:36;10.30;99.90
46336;DHT22;31365;48.858;8.530;2022-11-15T02:49:46;10.40;99.90
46336;DHT22;31365;48.858;8.530;2022-11-15T02:52:36;10.40;99.90
46336;DHT22;31365;48.858;8.530;2022-11-15T02:55:28;10.30;99.90
46336;DHT22;31365;48.858;8.530;2022-11-15T02:58:42;10.30;99.90
46336;DHT22;31365;48.858;8.530;2022-11-15T03:01:49;10.50;99.90
46336;DHT22;31365;48.858;8.530;2022-11-15T03:04:53;10.80;99.90
46336;DHT22;31365;48.858;8.530;2022-11-15T03:07:51;10.60;99.90
46336;DHT22;31365;48.858;8.530;2022-11-15T03:10:52;10.60;99.90
46336;DHT22;31365;48.858;8.530;2022-11-15T03:13:54;10.50;99.90
46336;DHT22;31365;48.858;8.530;2022-11-15T03:16:49;10.50;99.90
46336;DHT22;31365;48.858;8.530;2022-11-15T03:19:45;10.50;99.90
46336;DHT22;31365;48.858;8.530;2022-11-15T03:22:37;10.60;99.90
46336;DHT22;31365;48.858;8.530;2022-11-15T03:25:30;10.50;99.90
46336;DHT22;31365;48.858;8.530;2022-11-15T03:28:23;10.70;99.90
46336;DHT22;31365;48.858;8.530;2022-11-15T03:31:15;10.50;99.90
46336;DHT22;31365;48.858;8.530;2022-11-15T03:34:27;10.80;99.90
46336;DHT22;31365;48.858;8.530;2022-11-15T03:37:20;10.70;99.90
46336;DHT22;31365;48.858;8.530;2022-11-15T03:40:09;10.70;99.90
46336;DHT22;31365;48.858;8.530;2022-11-15T03:43:04;10.70;99.90
46336;DHT22;31365;48.858;8.530;2022-11-15T03:46:01;10.90;99.90
46336;DHT22;31365;48.858;8.530;2022-11-15T03:48:54;10.80;99.90
46336;DHT22;31365;48.858;8.530;2022-11-15T03:51:48;10.80;99.90
46336;DHT22;31365;48.858;8.530;2022-11-15T03:54:36;10.80;99.90
46336;DHT22;31365;48.858;8.530;2022-11-15T03:57:23;10.80;99.90
46336;DHT22;31365;48.858;8.530;2022-11-15T04:00:11;10.70;99.90
46336;DHT22;31365;48.858;8.530;2022-11-15T04:02:59;10.60;99.90
46336;DHT22;31365;48.858;8.530;2022-11-15T04:05:45;10.60;99.90
46336;DHT22;31365;48.858;8.530;2022-11-15T04:08:34;10.60;99.90
46336;DHT22;31365;48.858;8.530;2022-11-15T04:11:22;10.60;99.90
46336;DHT22;31365;48.858;8.530;2022-11-15T04:14:09;11.00;99.90
46336;DHT22;31365;48.858;8.530;2022-11-15T04:16:56;10.80;99.90
46336;DHT22;31365;48.858;8.530;2022-11-15T04:19:43;10.80;99.90
46336;DHT22;31365;48.858;8.530;2022-11-15T04:22:48;10.90;99.90
46336;DHT22;31365;48.858;8.530;2022-11-15T04:25:55;10.90;99.90
46336;DHT22;31365;48.858;8.530;2022-11-15T04:28:45;10.90;99.90
46336;DHT22;31365;48.858;8.530;2022-11-15T04:31:46;10.90;99.90
46336;DHT22;31365;48.858;8.530;2022-11-15T04:34:33;10.90;99.90
46336;DHT22;31365;48.858;8.530;2022-11-15T04:37:21;10.80;99.90
46336;DHT22;31365;48.858;8.530;2022-11-15T04:40:08;10.70;99.90
46336;DHT22;31365;48.858;8.530;2022-11-15T04:42:57;10.70;99.90
46336;DHT22;31365;48.858;8.530;2022-11-15T04:45:48;10.70;99.90
46336;DHT22;31365;48.858;8.530;2022-11-15T04:48:35;10.60;99.90
46336;DHT22;31365;48.858;8.530;2022-11-15T04:51:23;10.60;99.90
46336;DHT22;31365;48.858;8.530;2022-11-15T04:54:10;10.70;99.90
46336;DHT22;31365;48.858;8.530;2022-11-15T04:56:58;10.60;99.90
46336;DHT22;31365;48.858;8.530;2022-11-15T04:59:47;10.70;99.90
46336;DHT22;31365;48.858;8.530;2022-11-15T05:02:35;10.70;99.90
46336;DHT22;31365;48.858;8.530;2022-11-15T05:05:39;10.60;99.90
46336;DHT22;31365;48.858;8.530;2022-11-15T05:08:27;10.50;99.90
46336;DHT22;31365;48.858;8.530;2022-11-15T05:11:14;10.50;99.90
46336;DHT22;31365;48.858;8.530;2022-11-15T05:14:01;10.50;99.90
46336;DHT22;31365;48.858;8.530;2022-11-15T05:16:50;10.40;99.90
46336;DHT22;31365;48.858;8.530;2022-11-15T05:19:37;10.30;99.90
46336;DHT22;31365;48.858;8.530;2022-11-15T05:22:24;10.40;99.90
46336;DHT22;31365;48.858;8.530;2022-11-15T05:25:11;10.10;99.90
46336;DHT22;31365;48.858;8.530;2022-11-15T05:27:58;10.20;99.90
46336;DHT22;31365;48.858;8.530;2022-11-15T05:30:46;10.00;99.90
46336;DHT22;31365;48.858;8.530;2022-11-15T05:33:35;9.90;99.90
46336;DHT22;31365;48.858;8.530;2022-11-15T05:36:29;9.90;99.90
46336;DHT22;31365;48.858;8.530;2022-11-15T05:39:20;9.80;99.90
46336;DHT22;31365;48.858;8.530;2022-11-15T05:42:09;10.30;99.90
46336;DHT22;31365;48.858;8.530;2022-11-15T05:44:59;9.80;99.90
46336;DHT22;31365;48.858;8.530;2022-11-15T05:47:49;9.60;99.90
46336;DHT22;31365;48.858;8.530;2022-11-15T05:50:42;9.60;99.90
46336;DHT22;31365;48.858;8.530;2022-11-15T05:53:32;9.60;99.90
46336;DHT22;31365;48.858;8.530;2022-11-15T05:56:21;9.90;99.90
46336;DHT22;31365;48.858;8.530;2022-11-15T05:59:11;9.90;99.90
46336;DHT22;31365;48.858;8.530;2022-11-15T06:01:58;9.60;99.90
46336;DHT22;31365;48.858;8.530;2022-11-15T06:04:46;9.60;99.90
46336;DHT22;31365;48.858;8.530;2022-11-15T06:07:35;9.60;99.90
46336;DHT22;31365;48.858;8.530;2022-11-15T06:10:23;9.50;99.90
46336;DHT22;31365;48.858;8.530;2022-11-15T06:13:11;9.60;99.90
46336;DHT22;31365;48.858;8.530;2022-11-15T06:15:58;9.60;99.90
46336;DHT22;31365;48.858;8.530;2022-11-15T06:18:45;9.80;99.90
46336;DHT22;31365;48.858;8.530;2022-11-15T06:21:32;9.80;99.90
46336;DHT22;31365;48.858;8.530;2022-11-15T06:24:20;9.70;99.90
46336;DHT22;31365;48.858;8.530;2022-11-15T06:27:08;9.80;99.90
46336;DHT22;31365;48.858;8.530;2022-11-15T06:29:57;9.60;99.90
46336;DHT22;31365;48.858;8.530;2022-11-15T06:32:44;9.60;99.90
46336;DHT22;31365;48.858;8.530;2022-11-15T06:35:33;9.70;99.90
46336;DHT22;31365;48.858;8.530;2022-11-15T06:38:22;10.00;99.90
46336;DHT22;31365;48.858;8.530;2022-11-15T06:41:12;9.80;99.90
46336;DHT22;31365;48.858;8.530;2022-11-15T06:43:59;9.90;99.90
46336;DHT22;31365;48.858;8.530;2022-11-15T06:46:47;9.90;99.90
46336;DHT22;31365;48.858;8.530;2022-11-15T06:49:34;10.00;99.90
46336;DHT22;31365;48.858;8.530;2022-11-15T06:52:21;10.10;99.90
46336;DHT22;31365;48.858;8.530;2022-11-15T06:55:09;10.20;99.90
46336;DHT22;31365;48.858;8.530;2022-11-15T06:57:59;10.30;99.90
46336;DHT22;31365;48.858;8.530;2022-11-15T07:00:46;10.30;99.90
46336;DHT22;31365;48.858;8.530;2022-11-15T07:03:35;10.40;99.90
46336;DHT22;31365;48.858;8.530;2022-11-15T07:06:23;10.40;99.90
46336;DHT22;31365;48.858;8.530;2022-11-15T07:09:12;10.40;99.90
46336;DHT22;31365;48.858;8.530;2022-11-15T07:11:59;10.50;99.90
46336;DHT22;31365;48.858;8.530;2022-11-15T07:14:53;10.50;99.90
46336;DHT22;31365;48.858;8.530;2022-11-15T07:17:40;10.50;99.90
46336;DHT22;31365;48.858;8.530;2022-11-15T07:20:27;10.60;99.90
46336;DHT22;31365;48.858;8.530;2022-11-15T07:23:15;10.90;99.90
46336;DHT22;31365;48.858;8.530;2022-11-15T07:26:03;10.70;99.90
46336;DHT22;31365;48.858;8.530;2022-11-15T07:28:50;10.70;99.90
46336;DHT22;31365;48.858;8.530;2022-11-15T07:31:38;10.90;99.90
46336;DHT22;31365;48.858;8.530;2022-11-15T07:34:28;10.80;99.90
46336;DHT22;31365;48.858;8.530;2022-11-15T07:37:16;10.80;99.90
46336;DHT22;31365;48.858;8.530;2022-11-15T07:40:04;10.90;99.90
46336;DHT22;31365;48.858;8.530;2022-11-15T07:42:53;10.90;99.90
46336;DHT22;31365;48.858;8.530;2022-11-15T07:45:46;11.00;99.90
46336;DHT22;31365;48.858;8.530;2022-11-15T07:48:34;11.20;99.90
46336;DHT22;31365;48.858;8.530;2022-11-15T07:51:30;10.90;99.90
46336;DHT22;31365;48.858;8.530;2022-11-15T07:54:17;10.90;99.90
46336;DHT22;31365;48.858;8.530;2022-11-15T07:57:04;11.00;99.90
46336;DHT22;31365;48.858;8.530;2022-11-15T07:59:54;11.10;99.90
46336;DHT22;31365;48.858;8.530;2022-11-15T08:02:42;11.10;99.90
46336;DHT22;31365;48.858;8.530;2022-11-15T08:05:31;11.20;99.90
46336;DHT22;31365;48.858;8.530;2022-11-15T08:08:19;11.30;99.90
46336;DHT22;31365;48.858;8.530;2022-11-15T08:11:07;11.20;99.90
46336;DHT22;31365;48.858;8.530;2022-11-15T08:13:54;11.10;99.90
46336;DHT22;31365;48.858;8.530;2022-11-15T08:16:41;11.20;99.90
46336;DHT22;31365;48.858;8.530;2022-11-15T08:19:28;11.30;99.90
46336;DHT22;31365;48.858;8.530;2022-11-15T08:22:16;11.30;99.90
46336;DHT22;31365;48.858;8.530;2022-11-15T08:25:04;11.40;99.90
46336;DHT22;31365;48.858;8.530;2022-11-15T08:27:53;11.30;99.90
46336;DHT22;31365;48.858;8.530;2022-11-15T08:30:42;11.50;99.90
46336;DHT22;31365;48.858;8.530;2022-11-15T08:33:32;11.50;99.90
46336;DHT22;31365;48.858;8.530;2022-11-15T08:36:21;11.50;99.90
46336;DHT22;31365;48.858;8.530;2022-11-15T08:39:11;11.50;99.90
46336;DHT22;31365;48.858;8.530;2022-11-15T08:41:59;11.60;99.90
46336;DHT22;31365;48.858;8.530;2022-11-15T08:44:46;12.00;99.90
46336;DHT22;31365;48.858;8.530;2022-11-15T08:47:34;11.70;99.90
46336;DHT22;31365;48.858;8.530;2022-11-15T08:50:22;11.80;99.90
46336;DHT22;31365;48.858;8.530;2022-11-15T08:53:10;11.80;99.90
46336;DHT22;31365;48.858;8.530;2022-11-15T08:56:01;12.00;99.90
46336;DHT22;31365;48.858;8.530;2022-11-15T08:58:48;12.10;99.90
46336;DHT22;31365;48.858;8.530;2022-11-15T09:01:35;12.10;99.90
46336;DHT22;31365;48.858;8.530;2022-11-15T09:04:23;12.10;99.90
46336;DHT22;31365;48.858;8.530;2022-11-15T09:07:10;12.10;99.90
46336;DHT22;31365;48.858;8.530;2022-11-15T09:09:58;12.10;99.90
46336;DHT22;31365;48.858;8.530;2022-11-15T09:12:47;12.20;99.90
46336;DHT22;31365;48.858;8.530;2022-11-15T09:15:34;12.20;99.90
46336;DHT22;31365;48.858;8.530;2022-11-15T09:18:21;12.20;99.90
46336;DHT22;31365;48.858;8.530;2022-11-15T09:21:08;12.30;99.90
46336;DHT22;31365;48.858;8.530;2022-11-15T09:23:57;12.30;99.90
46336;DHT22;31365;48.858;8.530;2022-11-15T09:26:44;12.50;99.90
46336;DHT22;31365;48.858;8.530;2022-11-15T09:29:34;12.50;99.90
46336;DHT22;31365;48.858;8.530;2022-11-15T09:32:22;12.60;99.90
46336;DHT22;31365;48.858;8.530;2022-11-15T09:35:09;12.60;99.90
46336;DHT22;31365;48.858;8.530;2022-11-15T09:37:57;12.70;99.90
46336;DHT22;31365;48.858;8.530;2022-11-15T09:40:48;12.60;99.90
46336;DHT22;31365;48.858;8.530;2022-11-15T09:43:44;12.60;99.90
46336;DHT22;31365;48.858;8.530;2022-11-15T09:46:51;12.60;99.90
46336;DHT22;31365;48.858;8.530;2022-11-15T09:50:09;12.70;99.90
46336;DHT22;31365;48.858;8.530;2022-11-15T09:52:43;12.70;99.90
46336;DHT22;31365;48.858;8.530;2022-11-15T09:55:14;12.70;99.90
46336;DHT22;31365;48.858;8.530;2022-11-15T09:57:52;12.70;99.90
46336;DHT22;31365;48.858;8.530;2022-11-15T10:00:32;12.90;99.90
46336;DHT22;31365;48.858;8.530;2022-11-15T10:03:18;12.80;99.90
46336;DHT22;31365;48.858;8.530;2022-11-15T10:05:56;12.80;99.90
46336;DHT22;31365;48.858;8.530;2022-11-15T10:08:40;12.90;99.90
46336;DHT22;31365;48.858;8.530;2022-11-15T10:11:20;13.00;99.90
46336;DHT22;31365;48.858;8.530;2022-11-15T10:14:11;13.00;99.90
46336;DHT22;31365;48.858;8.530;2022-11-15T10:17:13;13.00;99.90
46336;DHT22;31365;48.858;8.530;2022-11-15T10:20:04;13.10;99.90
46336;DHT22;31365;48.858;8.530;2022-11-15T10:22:41;13.10;99.90
46336;DHT22;31365;48.858;8.530;2022-11-15T10:25:20;13.10;99.90
46336;DHT22;31365;48.858;8.530;2022-11-15T10:27:55;13.20;99.90
46336;DHT22;31365;48.858;8.530;2022-11-15T10:30:32;13.00;99.90
46336;DHT22;31365;48.858;8.530;2022-11-15T10:33:17;13.10;99.90
46336;DHT22;31365;48.858;8.530;2022-11-15T10:36:21;13.10;99.90
46336;DHT22;31365;48.858;8.530;2022-11-15T10:38:58;13.10;99.90
46336;DHT22;31365;48.858;8.530;2022-11-15T10:41:34;13.20;99.90
46336;DHT22;31365;48.858;8.530;2022-11-15T10:44:25;13.30;99.90
46336;DHT22;31365;48.858;8.530;2022-11-15T10:50:27;13.40;99.90
46336;DHT22;31365;48.858;8.530;2022-11-15T10:52:59;13.40;99.90
46336;DHT22;31365;48.858;8.530;2022-11-15T10:55:31;13.60;99.90
46336;DHT22;31365;48.858;8.530;2022-11-15T10:58:04;13.50;99.90
46336;DHT22;31365;48.858;8.530;2022-11-15T11:24:39;13.90;99.90
46336;DHT22;31365;48.858;8.530;2022-11-15T14:46:58;15.30;99.90
46336;DHT22;31365;48.858;8.530;2022-11-15T14:49:28;15.20;99.90
46336;DHT22;31365;48.858;8.530;2022-11-15T14:51:56;15.20;99.90
46336;DHT22;31365;48.858;8.530;2022-11-15T14:54:25;15.00;99.90
46336;DHT22;31365;48.858;8.530;2022-11-15T14:56:53;14.90;99.90
46336;DHT22;31365;48.858;8.530;2022-11-15T14:59:22;14.90;99.90
46336;DHT22;31365;48.858;8.530;2022-11-15T15:01:50;14.90;99.90
46336;DHT22;31365;48.858;8.530;2022-11-15T15:04:19;14.70;99.90
46336;DHT22;31365;48.858;8.530;2022-11-15T15:06:48;14.60;99.90
46336;DHT22;31365;48.858;8.530;2022-11-15T15:09:17;14.60;99.90
46336;DHT22;31365;48.858;8.530;2022-11-15T15:11:46;14.50;99.90
46336;DHT22;31365;48.858;8.530;2022-11-15T15:14:14;14.50;99.90
46336;DHT22;31365;48.858;8.530;2022-11-15T15:16:43;14.40;99.90
46336;DHT22;31365;48.858;8.530;2022-11-15T15:19:11;14.40;99.90
46336;DHT22;31365;48.858;8.530;2022-11-15T15:21:41;14.30;99.90
46336;DHT22;31365;48.858;8.530;2022-11-15T15:24:13;14.30;99.90
46336;DHT22;31365;48.858;8.530;2022-11-15T15:26:43;14.30;99.90
46336;DHT22;31365;48.858;8.530;2022-11-15T15:29:11;14.20;99.90
46336;DHT22;31365;48.858;8.530;2022-11-15T15:31:39;14.20;99.90
46336;DHT22;31365;48.858;8.530;2022-11-15T15:34:08;14.20;99.90
46336;DHT22;31365;48.858;8.530;2022-11-15T15:36:44;14.10;99.90
46336;DHT22;31365;48.858;8.530;2022-11-15T15:39:13;14.10;99.90
46336;DHT22;31365;48.858;8.530;2022-11-15T15:41:42;14.10;99.90
46336;DHT22;31365;48.858;8.530;2022-11-15T15:44:11;14.20;99.90
46336;DHT22;31365;48.858;8.530;2022-11-15T15:46:39;14.10;99.90
46336;DHT22;31365;48.858;8.530;2022-11-15T15:49:09;14.00;99.90
46336;DHT22;31365;48.858;8.530;2022-11-15T15:51:38;14.00;99.90
46336;DHT22;31365;48.858;8.530;2022-11-15T15:54:08;13.90;99.90
46336;DHT22;31365;48.858;8.530;2022-11-15T15:56:36;14.00;99.90
46336;DHT22;31365;48.858;8.530;2022-11-15T15:59:05;14.00;99.90
46336;DHT22;31365;48.858;8.530;2022-11-15T16:01:34;13.90;99.90
46336;DHT22;31365;48.858;8.530;2022-11-15T16:04:02;13.90;99.90
46336;DHT22;31365;48.858;8.530;2022-11-15T16:06:34;13.90;99.90
46336;DHT22;31365;48.858;8.530;2022-11-15T16:09:05;13.80;99.90
46336;DHT22;31365;48.858;8.530;2022-11-15T16:11:44;13.90;99.90
46336;DHT22;31365;48.858;8.530;2022-11-15T16:14:14;13.90;99.90
46336;DHT22;31365;48.858;8.530;2022-11-15T16:16:43;13.90;99.90
46336;DHT22;31365;48.858;8.530;2022-11-15T16:19:11;13.90;99.90
46336;DHT22;31365;48.858;8.530;2022-11-15T16:21:40;13.80;99.90
46336;DHT22;31365;48.858;8.530;2022-11-15T16:24:10;13.80;99.90
46336;DHT22;31365;48.858;8.530;2022-11-15T16:26:39;13.80;99.90
46336;DHT22;31365;48.858;8.530;2022-11-15T16:29:08;13.80;99.90
46336;DHT22;31365;48.858;8.530;2022-11-15T16:31:38;13.80;99.90
46336;DHT22;31365;48.858;8.530;2022-11-15T16:34:06;13.80;99.90
46336;DHT22;31365;48.858;8.530;2022-11-15T16:36:35;13.80;99.90
46336;DHT22;31365;48.858;8.530;2022-11-15T16:39:03;13.80;99.90
46336;DHT22;31365;48.858;8.530;2022-11-15T16:41:33;13.70;99.90
46336;DHT22;31365;48.858;8.530;2022-11-15T16:44:02;13.80;99.90
46336;DHT22;31365;48.858;8.530;2022-11-15T16:46:30;13.80;99.90
46336;DHT22;31365;48.858;8.530;2022-11-15T16:48:58;13.70;99.90
46336;DHT22;31365;48.858;8.530;2022-11-15T16:51:27;13.80;99.90
46336;DHT22;31365;48.858;8.530;2022-11-15T16:53:55;13.70;99.90
46336;DHT22;31365;48.858;8.530;2022-11-15T16:56:25;13.80;99.90
46336;DHT22;31365;48.858;8.530;2022-11-15T16:58:58;13.70;99.90
46336;DHT22;31365;48.858;8.530;2022-11-15T17:01:29;13.70;99.90
46336;DHT22;31365;48.858;8.530;2022-11-15T17:03:58;13.70;99.90
46336;DHT22;31365;48.858;8.530;2022-11-15T17:06:39;13.60;99.90
46336;DHT22;31365;48.858;8.530;2022-11-15T17:09:10;13.60;99.90
46336;DHT22;31365;48.858;8.530;2022-11-15T17:11:41;13.60;99.90
46336;DHT22;31365;48.858;8.530;2022-11-15T17:14:12;13.60;99.90
46336;DHT22;31365;48.858;8.530;2022-11-15T17:16:40;13.60;99.90
46336;DHT22;31365;48.858;8.530;2022-11-15T17:19:14;13.60;99.90
46336;DHT22;31365;48.858;8.530;2022-11-15T17:21:45;13.60;99.90
46336;DHT22;31365;48.858;8.530;2022-11-15T17:24:16;13.60;99.90
46336;DHT22;31365;48.858;8.530;2022-11-15T17:26:47;13.60;99.90
46336;DHT22;31365;48.858;8.530;2022-11-15T17:29:17;13.60;99.90
46336;DHT22;31365;48.858;8.530;2022-11-15T17:31:46;13.60;99.90
46336;DHT22;31365;48.858;8.530;2022-11-15T17:34:14;13.60;99.90
46336;DHT22;31365;48.858;8.530;2022-11-15T17:36:43;13.60;99.90
46336;DHT22;31365;48.858;8.530;2022-11-15T17:39:11;13.60;99.90
46336;DHT22;31365;48.858;8.530;2022-11-15T17:41:40;13.60;99.90
46336;DHT22;31365;48.858;8.530;2022-11-15T17:44:08;13.60;99.90
46336;DHT22;31365;48.858;8.530;2022-11-15T17:46:38;13.60;99.90
46336;DHT22;31365;48.858;8.530;2022-11-15T17:49:07;13.60;99.90
46336;DHT22;31365;48.858;8.530;2022-11-15T17:51:35;13.60;99.90
46336;DHT22;31365;48.858;8.530;2022-11-15T17:54:12;13.60;99.90
46336;DHT22;31365;48.858;8.530;2022-11-15T17:56:41;13.60;99.90
46336;DHT22;31365;48.858;8.530;2022-11-15T17:59:09;13.70;99.90
46336;DHT22;31365;48.858;8.530;2022-11-15T18:01:44;13.70;99.90
46336;DHT22;31365;48.858;8.530;2022-11-15T18:04:13;13.70;99.90
46336;DHT22;31365;48.858;8.530;2022-11-15T18:06:42;13.70;99.90
46336;DHT22;31365;48.858;8.530;2022-11-15T18:09:12;13.70;99.90
46336;DHT22;31365;48.858;8.530;2022-11-15T18:11:41;13.60;99.90
46336;DHT22;31365;48.858;8.530;2022-11-15T18:14:13;13.70;99.90
46336;DHT22;31365;48.858;8.530;2022-11-15T18:16:44;13.60;99.90
46336;DHT22;31365;48.858;8.530;2022-11-15T18:19:14;13.50;99.90
46336;DHT22;31365;48.858;8.530;2022-11-15T18:21:44;13.50;99.90
46336;DHT22;31365;48.858;8.530;2022-11-15T18:24:26;13.50;99.90
46336;DHT22;31365;48.858;8.530;2022-11-15T18:26:56;13.40;99.90
46336;DHT22;31365;48.858;8.530;2022-11-15T18:29:26;13.40;99.90
46336;DHT22;31365;48.858;8.530;2022-11-15T18:31:55;13.40;99.90
46336;DHT22;31365;48.858;8.530;2022-11-15T18:34:28;13.30;99.90
46336;DHT22;31365;48.858;8.530;2022-11-15T18:36:59;13.20;99.90
46336;DHT22;31365;48.858;8.530;2022-11-15T18:39:29;13.40;99.90
46336;DHT22;31365;48.858;8.530;2022-11-15T18:42:01;13.30;99.90
46336;DHT22;31365;48.858;8.530;2022-11-15T18:44:29;13.20;99.90
46336;DHT22;31365;48.858;8.530;2022-11-15T18:46:59;13.20;99.90
46336;DHT22;31365;48.858;8.530;2022-11-15T18:49:28;13.10;99.90
46336;DHT22;31365;48.858;8.530;2022-11-15T18:51:56;13.10;99.90
46336;DHT22;31365;48.858;8.530;2022-11-15T18:54:25;13.10;99.90
46336;DHT22;31365;48.858;8.530;2022-11-15T18:56:58;13.10;99.90
46336;DHT22;31365;48.858;8.530;2022-11-15T18:59:26;13.10;99.90
46336;DHT22;31365;48.858;8.530;2022-11-15T19:01:56;13.20;99.90
46336;DHT22;31365;48.858;8.530;2022-11-15T19:04:26;13.10;99.90
46336;DHT22;31365;48.858;8.530;2022-11-15T19:06:54;13.20;99.90
46336;DHT22;31365;48.858;8.530;2022-11-15T19:09:23;13.20;99.90
46336;DHT22;31365;48.858;8.530;2022-11-15T19:11:59;13.20;99.90
46336;DHT22;31365;48.858;8.530;2022-11-15T19:14:29;13.20;99.90
46336;DHT22;31365;48.858;8.530;2022-11-15T19:16:57;13.20;99.90
46336;DHT22;31365;48.858;8.530;2022-11-15T19:19:28;13.30;99.90
46336;DHT22;31365;48.858;8.530;2022-11-15T19:22:00;13.20;99.90
46336;DHT22;31365;48.858;8.530;2022-11-15T19:24:28;13.30;99.90
46336;DHT22;31365;48.858;8.530;2022-11-15T19:26:56;13.30;99.90
46336;DHT22;31365;48.858;8.530;2022-11-15T19:29:24;13.30;99.90
46336;DHT22;31365;48.858;8.530;2022-11-15T19:31:53;13.30;99.90
46336;DHT22;31365;48.858;8.530;2022-11-15T19:34:22;13.30;99.90
46336;DHT22;31365;48.858;8.530;2022-11-15T19:36:52;13.40;99.90
46336;DHT22;31365;48.858;8.530;2022-11-15T19:39:20;13.40;99.90
46336;DHT22;31365;48.858;8.530;2022-11-15T19:41:49;13.40;99.90
46336;DHT22;31365;48.858;8.530;2022-11-15T19:44:18;13.30;99.90
46336;DHT22;31365;48.858;8.530;2022-11-15T19:46:47;13.30;99.90
46336;DHT22;31365;48.858;8.530;2022-11-15T19:49:16;13.40;99.90
46336;DHT22;31365;48.858;8.530;2022-11-15T19:51:45;13.30;99.90
46336;DHT22;31365;48.858;8.530;2022-11-15T19:54:15;13.30;99.90
46336;DHT22;31365;48.858;8.530;2022-11-15T19:56:44;13.40;99.90
46336;DHT22;31365;48.858;8.530;2022-11-15T19:59:12;13.40;99.90
46336;DHT22;31365;48.858;8.530;2022-11-15T20:01:43;13.30;99.90
46336;DHT22;31365;48.858;8.530;2022-11-15T20:04:11;13.30;99.90
46336;DHT22;31365;48.858;8.530;2022-11-15T20:06:41;13.30;99.90
46336;DHT22;31365;48.858;8.530;2022-11-15T20:09:11;13.20;99.90
46336;DHT22;31365;48.858;8.530;2022-11-15T20:11:42;13.20;99.90
46336;DHT22;31365;48.858;8.530;2022-11-15T20:14:11;13.10;99.90
46336;DHT22;31365;48.858;8.530;2022-11-15T20:16:42;13.00;99.90
46336;DHT22;31365;48.858;8.530;2022-11-15T20:19:10;12.90;99.90
46336;DHT22;31365;48.858;8.530;2022-11-15T20:21:41;12.80;99.90
46336;DHT22;31365;48.858;8.530;2022-11-15T20:24:10;12.80;99.90
46336;DHT22;31365;48.858;8.530;2022-11-15T20:26:39;12.70;99.90
46336;DHT22;31365;48.858;8.530;2022-11-15T20:29:10;12.60;99.90
46336;DHT22;31365;48.858;8.530;2022-11-15T20:31:38;12.50;99.90
46336;DHT22;31365;48.858;8.530;2022-11-15T20:34:07;12.60;99.90
46336;DHT22;31365;48.858;8.530;2022-11-15T20:36:35;12.70;99.90
46336;DHT22;31365;48.858;8.530;2022-11-15T20:39:04;12.60;99.90
46336;DHT22;31365;48.858;8.530;2022-11-15T20:41:32;12.60;99.90
46336;DHT22;31365;48.858;8.530;2022-11-15T20:44:01;12.60;99.90
46336;DHT22;31365;48.858;8.530;2022-11-15T20:46:31;12.50;99.90
46336;DHT22;31365;48.858;8.530;2022-11-15T20:48:59;12.50;99.90
46336;DHT22;31365;48.858;8.530;2022-11-15T20:51:27;12.40;99.90
46336;DHT22;31365;48.858;8.530;2022-11-15T20:53:55;12.30;99.90